Time;durP1;ratioP1;P1;durP2;ratioP2;P2;SDS_P1;SDS_P2;PMS_P1;PMS_P2;Temp;Humidity;BMP_temperature;BMP_pressure;BME280_temperature;BME280_humidity;BME280_pressure;Samples;Min_cycle;Max_cycle;Signal;HPM_P1;HPM_P2
2023/05/31 00:00:25;;;;;;;10.50;3.40;;;10.60;99.90;;;;;;4932780;29;20542;-66
2023/05/31 00:02:51;;;;;;;7.47;3.20;;;10.70;99.90;;;;;;4916948;29;20050;-66
2023/05/31 00:05:16;;;;;;;4.67;2.80;;;10.80;99.90;;;;;;4916064;29;20126;-66
2023/05/31 00:07:42;;;;;;;6.73;2.63;;;10.90;99.90;;;;;;4932243;29;20035;-66
2023/05/31 00:10:08;;;;;;;6.50;2.87;;;10.90;99.90;;;;;;4916433;29;20035;-66
2023/05/31 00:12:34;;;;;;;6.17;2.80;;;10.80;99.90;;;;;;4943460;28;20063;-67
2023/05/31 00:15:00;;;;;;;6.27;2.80;;;10.70;99.90;;;;;;4918332;29;20050;-66
2023/05/31 00:17:25;;;;;;;6.60;2.33;;;10.70;99.90;;;;;;4932026;29;20130;-66
2023/05/31 00:19:51;;;;;;;10.67;3.47;;;10.60;99.90;;;;;;4931760;29;20044;-66
2023/05/31 00:22:17;;;;;;;9.03;2.90;;;10.50;99.90;;;;;;4931546;29;20044;-66
2023/05/31 00:24:43;;;;;;;7.97;2.77;;;10.40;99.90;;;;;;4931680;29;20522;-66
2023/05/31 00:27:09;;;;;;;7.43;3.13;;;10.30;99.90;;;;;;4934292;29;20135;-66
2023/05/31 00:29:35;;;;;;;7.73;3.27;;;10.20;99.90;;;;;;4916856;29;20130;-66
2023/05/31 00:32:00;;;;;;;6.53;3.23;;;10.10;99.90;;;;;;4925126;29;20040;-66
2023/05/31 00:34:26;;;;;;;6.43;3.13;;;10.00;99.90;;;;;;4931225;29;20046;-66
2023/05/31 00:36:52;;;;;;;6.83;3.03;;;9.90;99.90;;;;;;4931290;29;20118;-67
2023/05/31 00:39:18;;;;;;;5.63;2.80;;;9.90;99.90;;;;;;4915494;29;20111;-66
2023/05/31 00:41:44;;;;;;;10.93;3.67;;;9.80;99.90;;;;;;4931483;29;20038;-66
2023/05/31 00:44:10;;;;;;;7.25;3.15;;;9.80;99.90;;;;;;4933367;29;20067;-66
2023/05/31 00:46:38;;;;;;;7.07;3.20;;;9.70;99.90;;;;;;4916019;29;20451;-67
2023/05/31 00:49:04;;;;;;;5.95;3.20;;;9.60;99.90;;;;;;4932999;29;20052;-67
2023/05/31 00:51:32;;;;;;;8.63;3.05;;;9.60;99.90;;;;;;4929118;29;20043;-66
2023/05/31 00:53:59;;;;;;;8.07;2.95;;;9.50;99.90;;;;;;4916792;29;20071;-67
2023/05/31 00:56:25;;;;;;;8.30;3.50;;;9.50;99.90;;;;;;4938046;29;20535;-67
2023/05/31 00:58:53;;;;;;;7.90;3.30;;;9.40;99.90;;;;;;4932063;29;20078;-66
2023/05/31 01:01:20;;;;;;;8.48;3.50;;;9.30;99.90;;;;;;4919850;29;20062;-66
2023/05/31 01:03:46;;;;;;;9.65;3.70;;;9.20;99.90;;;;;;4931107;29;20119;-66
2023/05/31 01:06:12;;;;;;;6.38;3.65;;;9.20;99.90;;;;;;4930306;29;20062;-66
2023/05/31 01:08:39;;;;;;;8.07;3.67;;;9.20;99.90;;;;;;4929435;29;20043;-66
2023/05/31 01:11:34;;;;;;;7.68;3.42;;;9.10;99.90;;;;;;4929279;29;20059;-66
2023/05/31 01:14:22;;;;;;;9.85;4.00;;;9.00;99.90;;;;;;4912519;29;20086;-66
2023/05/31 01:16:53;;;;;;;9.80;3.80;;;9.00;99.90;;;;;;4936775;29;20143;-67
2023/05/31 01:19:47;;;;;;;8.45;3.42;;;9.00;99.90;;;;;;4923973;29;20440;-67
2023/05/31 01:22:32;;;;;;;7.57;3.70;;;8.90;99.90;;;;;;4929854;29;20424;-66
2023/05/31 01:25:19;;;;;;;10.70;3.63;;;8.90;99.90;;;;;;4915033;29;20071;-66
2023/05/31 01:27:46;;;;;;;9.13;3.75;;;8.80;99.90;;;;;;4915960;29;20071;-66
2023/05/31 01:30:14;;;;;;;8.70;3.58;;;8.80;99.90;;;;;;4921669;29;20046;-67
2023/05/31 01:32:41;;;;;;;8.85;3.67;;;8.70;99.90;;;;;;4933534;29;20036;-66
2023/05/31 01:35:07;;;;;;;8.10;3.75;;;8.70;99.90;;;;;;4931128;29;20050;-66
2023/05/31 01:37:33;;;;;;;9.63;3.55;;;8.60;99.90;;;;;;4932430;29;20066;-67
2023/05/31 01:39:59;;;;;;;8.03;3.53;;;8.60;99.90;;;;;;4930048;29;20044;-66
2023/05/31 01:42:25;;;;;;;10.90;3.70;;;8.60;99.90;;;;;;4932365;29;20058;-66
2023/05/31 01:44:52;;;;;;;11.25;4.00;;;8.60;99.90;;;;;;4930276;29;20044;-66
2023/05/31 01:47:20;;;;;;;16.17;4.43;;;8.60;99.90;;;;;;4932281;29;20043;-66
2023/05/31 01:49:46;;;;;;;10.00;4.22;;;8.60;99.90;;;;;;4930245;29;20043;-66
2023/05/31 01:52:15;;;;;;;10.82;4.30;;;8.60;99.90;;;;;;4911876;29;20043;-66
2023/05/31 01:54:40;;;;;;;11.65;4.30;;;8.50;99.90;;;;;;4930160;29;20043;-66
2023/05/31 01:57:07;;;;;;;7.83;3.93;;;8.50;99.90;;;;;;4930679;29;20043;-66
2023/05/31 01:59:35;;;;;;;9.02;4.13;;;8.50;99.90;;;;;;4913728;29;20036;-67
2023/05/31 02:02:03;;;;;;;10.13;4.18;;;8.50;99.90;;;;;;4929114;29;20053;-66
2023/05/31 02:04:28;;;;;;;11.07;4.38;;;8.50;99.90;;;;;;4913300;29;20062;-66
2023/05/31 02:06:54;;;;;;;10.37;4.80;;;8.40;99.90;;;;;;4913072;29;20043;-66
2023/05/31 02:09:21;;;;;;;10.60;4.73;;;8.50;99.90;;;;;;4931859;29;20484;-67
2023/05/31 02:11:46;;;;;;;8.60;4.60;;;8.50;99.90;;;;;;4929882;29;20460;-67
2023/05/31 02:14:12;;;;;;;12.23;4.73;;;8.50;99.90;;;;;;4930371;29;20047;-66
2023/05/31 02:16:38;;;;;;;11.57;4.37;;;8.50;99.90;;;;;;4921432;29;20127;-66
2023/05/31 02:19:03;;;;;;;11.83;4.33;;;8.40;99.90;;;;;;4932385;29;20067;-66
2023/05/31 02:21:33;;;;;;;11.27;4.93;;;8.40;99.90;;;;;;4933917;29;20122;-66
2023/05/31 02:23:59;;;;;;;14.07;5.38;;;8.40;99.90;;;;;;4933887;29;20491;-66
2023/05/31 02:26:26;;;;;;;15.05;5.03;;;8.40;99.90;;;;;;4920118;29;20045;-67
2023/05/31 02:28:52;;;;;;;11.82;4.97;;;8.40;99.90;;;;;;4932682;29;20072;-67
2023/05/31 02:31:17;;;;;;;13.97;4.87;;;8.40;99.90;;;;;;4941820;29;20488;-67
2023/05/31 02:33:43;;;;;;;10.93;5.00;;;8.30;99.90;;;;;;4932239;29;20044;-66
2023/05/31 02:36:10;;;;;;;12.03;4.67;;;8.30;99.90;;;;;;4934530;29;20036;-66
2023/05/31 02:38:35;;;;;;;11.95;4.85;;;8.30;99.90;;;;;;4932639;29;20495;-66
2023/05/31 02:41:01;;;;;;;11.87;4.70;;;8.30;99.90;;;;;;4929602;29;20058;-67
2023/05/31 02:43:27;;;;;;;11.03;4.93;;;8.20;99.90;;;;;;4932695;29;20046;-67
2023/05/31 02:45:52;;;;;;;12.73;5.10;;;8.20;99.90;;;;;;4933631;29;20032;-66
2023/05/31 02:48:18;;;;;;;12.33;5.80;;;8.20;99.90;;;;;;4932292;29;20114;-66
2023/05/31 02:50:44;;;;;;;12.53;5.37;;;8.20;99.90;;;;;;4932554;29;20563;-67
2023/05/31 02:53:10;;;;;;;12.80;5.43;;;8.20;99.90;;;;;;4932612;29;20770;-66
2023/05/31 02:55:39;;;;;;;11.47;5.50;;;8.20;99.90;;;;;;4943311;29;20043;-66
2023/05/31 02:58:06;;;;;;;10.52;5.15;;;8.20;99.90;;;;;;4932814;29;20090;-66
2023/05/31 03:00:33;;;;;;;16.90;5.28;;;8.20;99.90;;;;;;4932479;29;20047;-66
2023/05/31 03:02:58;;;;;;;13.00;5.78;;;8.20;99.90;;;;;;4930347;29;20130;-67
2023/05/31 03:05:26;;;;;;;14.17;5.60;;;8.20;99.90;;;;;;4933194;29;20131;-66
2023/05/31 03:07:51;;;;;;;12.73;6.22;;;8.10;99.90;;;;;;4917421;29;20519;-66
2023/05/31 03:10:17;;;;;;;12.93;5.60;;;8.10;99.90;;;;;;4933915;29;20067;-66
2023/05/31 03:12:43;;;;;;;13.30;5.73;;;8.10;99.90;;;;;;4933383;29;20059;-67
2023/05/31 03:15:09;;;;;;;11.90;5.43;;;8.10;99.90;;;;;;4918921;29;20044;-67
2023/05/31 03:17:37;;;;;;;14.90;6.43;;;8.10;99.90;;;;;;4932618;29;20055;-67
2023/05/31 03:20:09;;;;;;;14.45;6.22;;;8.00;99.90;;;;;;4916655;29;20507;-66
2023/05/31 03:22:35;;;;;;;16.63;6.38;;;8.00;99.90;;;;;;4932950;29;20055;-67
2023/05/31 03:25:03;;;;;;;10.93;5.57;;;8.00;99.90;;;;;;4934201;29;20048;-66
2023/05/31 03:27:30;;;;;;;12.88;5.95;;;8.00;99.90;;;;;;4934380;29;20062;-66
2023/05/31 03:29:56;;;;;;;15.35;6.43;;;8.00;99.90;;;;;;4933789;29;20042;-66
2023/05/31 03:32:22;;;;;;;14.13;6.80;;;8.00;99.90;;;;;;4935554;29;20067;-66
2023/05/31 03:34:47;;;;;;;14.43;6.87;;;7.90;99.90;;;;;;4932052;29;20063;-67
2023/05/31 03:37:13;;;;;;;17.23;6.07;;;8.00;99.90;;;;;;4932175;29;20048;-66
2023/05/31 03:39:39;;;;;;;13.33;6.67;;;8.00;99.90;;;;;;4916572;29;20122;-66
2023/05/31 03:42:06;;;;;;;14.13;6.23;;;8.00;99.90;;;;;;4930069;29;20036;-67
2023/05/31 03:44:31;;;;;;;14.43;6.60;;;8.00;99.90;;;;;;4933781;29;20451;-67
2023/05/31 03:46:58;;;;;;;16.73;7.10;;;8.10;99.90;;;;;;4916044;29;20090;-66
2023/05/31 03:49:23;;;;;;;15.63;6.88;;;8.10;99.90;;;;;;4915945;29;20142;-66
2023/05/31 03:51:49;;;;;;;16.70;6.93;;;8.10;99.90;;;;;;4933750;29;20143;-66
2023/05/31 03:54:15;;;;;;;13.37;6.13;;;8.20;99.90;;;;;;4931487;29;20040;-67
2023/05/31 03:56:40;;;;;;;15.20;6.80;;;8.20;99.90;;;;;;4932717;29;20056;-67
2023/05/31 03:59:06;;;;;;;13.37;6.23;;;8.20;99.90;;;;;;4914396;29;20048;-66
2023/05/31 04:01:32;;;;;;;17.37;6.60;;;8.20;99.90;;;;;;4931486;29;20075;-66
2023/05/31 04:03:58;;;;;;;14.27;6.63;;;8.20;99.90;;;;;;4931979;29;20515;-66
2023/05/31 04:06:26;;;;;;;13.77;6.43;;;8.30;99.90;;;;;;4931359;29;20098;-66
2023/05/31 04:08:52;;;;;;;15.60;6.63;;;8.30;99.90;;;;;;4934251;29;20044;-67
2023/05/31 04:11:18;;;;;;;12.90;6.03;;;8.40;99.90;;;;;;4913079;29;20118;-67
2023/05/31 04:13:43;;;;;;;12.27;6.87;;;8.40;99.90;;;;;;4933081;29;20574;-67
2023/05/31 04:16:09;;;;;;;15.97;6.77;;;8.50;99.90;;;;;;4916536;29;20036;-67
2023/05/31 04:18:35;;;;;;;15.83;7.07;;;8.50;99.90;;;;;;4915722;29;20447;-67
2023/05/31 04:21:01;;;;;;;15.77;7.13;;;8.60;99.90;;;;;;4930472;29;20047;-67
2023/05/31 04:23:27;;;;;;;15.70;6.80;;;8.70;99.90;;;;;;4930267;29;20043;-67
2023/05/31 04:25:52;;;;;;;17.87;7.07;;;8.70;99.90;;;;;;4932677;29;20044;-67
2023/05/31 04:28:19;;;;;;;14.40;7.10;;;8.80;99.90;;;;;;4929463;29;20047;-67
2023/05/31 04:30:45;;;;;;;14.15;7.22;;;8.90;99.90;;;;;;4930009;29;20047;-67
2023/05/31 04:33:11;;;;;;;11.80;6.50;;;9.00;99.90;;;;;;4929519;29;20066;-66
2023/05/31 04:35:37;;;;;;;17.73;7.80;;;9.00;99.90;;;;;;4929857;29;20558;-66
2023/05/31 04:38:03;;;;;;;19.20;7.70;;;9.30;99.90;;;;;;4931232;29;20390;-67
2023/05/31 04:40:31;;;;;;;16.00;7.83;;;9.80;99.90;;;;;;4930253;29;20233;-67
2023/05/31 04:43:00;;;;;;;13.73;7.22;;;10.60;99.90;;;;;;4936285;29;20052;-67
2023/05/31 04:45:27;;;;;;;12.13;6.93;;;11.10;99.90;;;;;;4929545;29;20044;-67
2023/05/31 04:47:53;;;;;;;15.65;7.30;;;11.30;99.90;;;;;;4928657;29;20071;-67
2023/05/31 04:50:19;;;;;;;15.17;7.23;;;11.50;99.90;;;;;;4932710;29;20071;-67
2023/05/31 04:52:44;;;;;;;17.47;6.53;;;12.10;99.90;;;;;;4930722;29;20515;-67
2023/05/31 04:55:11;;;;;;;15.07;6.83;;;12.70;99.90;;;;;;4934425;29;20043;-67
2023/05/31 04:57:37;;;;;;;12.32;6.40;;;13.60;99.90;;;;;;4929247;29;20074;-67
2023/05/31 05:00:15;;;;;;;12.13;6.13;;;14.40;99.90;;;;;;4930090;29;20505;-67
2023/05/31 05:02:42;;;;;;;13.90;6.73;;;15.10;98.00;;;;;;4929420;29;20283;-67
2023/05/31 05:05:08;;;;;;;11.80;6.60;;;15.70;94.30;;;;;;4930409;29;20295;-67
2023/05/31 05:07:34;;;;;;;14.57;5.70;;;16.20;91.50;;;;;;4929859;29;20303;-67
2023/05/31 05:10:00;;;;;;;11.87;5.63;;;16.60;88.30;;;;;;4929525;29;20295;-68
2023/05/31 05:12:26;;;;;;;10.60;5.60;;;17.00;86.70;;;;;;4942849;29;20067;-67
2023/05/31 05:14:52;;;;;;;11.67;5.63;;;17.20;83.90;;;;;;4931708;29;20291;-67
2023/05/31 05:17:17;;;;;;;10.50;6.20;;;17.60;83.40;;;;;;4930553;29;20366;-67
2023/05/31 05:19:43;;;;;;;10.83;5.67;;;17.70;80.00;;;;;;4912087;29;20044;-67
2023/05/31 05:22:10;;;;;;;15.07;5.97;;;17.90;79.90;;;;;;4924826;29;20107;-67
2023/05/31 05:24:36;;;;;;;9.83;5.50;;;18.20;77.00;;;;;;4931371;29;20302;-67
2023/05/31 05:27:02;;;;;;;14.70;5.67;;;18.20;77.30;;;;;;4933237;29;20287;-67
2023/05/31 05:29:28;;;;;;;12.77;6.10;;;18.10;76.90;;;;;;4916916;29;20047;-68
2023/05/31 05:31:53;;;;;;;14.27;5.93;;;17.90;76.80;;;;;;4929853;29;20776;-67
2023/05/31 05:34:20;;;;;;;9.77;5.90;;;17.80;77.90;;;;;;4934355;29;20051;-68
2023/05/31 05:36:46;;;;;;;11.13;5.50;;;17.80;78.20;;;;;;4939998;29;20055;-68
2023/05/31 05:39:12;;;;;;;11.80;5.70;;;18.10;77.30;;;;;;4928955;29;20283;-67
2023/05/31 05:41:38;;;;;;;12.53;6.87;;;18.40;76.10;;;;;;4932995;29;20849;-67
2023/05/31 05:44:03;;;;;;;17.37;6.03;;;18.60;75.70;;;;;;4940623;29;20054;-67
2023/05/31 05:46:29;;;;;;;10.77;5.23;;;18.70;74.50;;;;;;4917684;29;20051;-68
2023/05/31 05:48:56;;;;;;;14.00;5.73;;;19.00;74.00;;;;;;4920612;29;20044;-68
2023/05/31 05:51:22;;;;;;;12.60;5.50;;;18.70;74.10;;;;;;4940194;29;20048;-67
2023/05/31 05:53:48;;;;;;;14.07;6.40;;;18.20;75.70;;;;;;4950290;28;20279;-68
2023/05/31 05:56:18;;;;;;;11.30;6.10;;;18.00;77.40;;;;;;4936276;29;20286;-68
2023/05/31 05:58:46;;;;;;;11.80;5.93;;;18.10;77.90;;;;;;4927782;29;20048;-68
2023/05/31 06:01:18;;;;;;;14.30;5.93;;;18.30;76.20;;;;;;4945601;29;20660;-68
2023/05/31 06:03:50;;;;;;;12.63;6.20;;;18.40;75.80;;;;;;4941836;29;20383;-67
2023/05/31 06:06:16;;;;;;;14.30;6.57;;;18.60;75.30;;;;;;4936275;29;20382;-67
2023/05/31 06:08:43;;;;;;;14.10;6.83;;;18.70;74.40;;;;;;4931626;29;20314;-67
2023/05/31 06:11:09;;;;;;;13.43;6.70;;;18.80;73.90;;;;;;4917982;29;20394;-67
2023/05/31 06:13:35;;;;;;;11.40;6.30;;;19.00;73.00;;;;;;4933247;29;20331;-67
2023/05/31 06:16:03;;;;;;;14.67;6.57;;;19.10;71.40;;;;;;4936682;29;20047;-67
2023/05/31 06:18:29;;;;;;;14.33;6.73;;;19.10;71.90;;;;;;4928742;29;20395;-67
2023/05/31 06:20:55;;;;;;;11.83;6.93;;;19.20;71.90;;;;;;4932499;29;20292;-67
2023/05/31 06:23:21;;;;;;;13.57;6.77;;;19.10;72.50;;;;;;4932716;29;20349;-67
2023/05/31 06:25:47;;;;;;;15.83;6.77;;;19.10;71.80;;;;;;4943825;29;20035;-67
2023/05/31 06:28:13;;;;;;;13.30;6.03;;;19.10;71.20;;;;;;4934005;29;20303;-67
2023/05/31 06:30:38;;;;;;;15.57;7.07;;;19.10;71.80;;;;;;4934015;29;20614;-67
2023/05/31 06:33:04;;;;;;;15.73;6.83;;;19.20;70.70;;;;;;4933545;29;20289;-67
2023/05/31 06:35:30;;;;;;;14.30;7.47;;;19.00;71.00;;;;;;4927594;29;20054;-67
2023/05/31 06:37:55;;;;;;;12.50;6.97;;;19.00;71.20;;;;;;4933639;29;20428;-67
2023/05/31 06:40:22;;;;;;;12.10;7.47;;;18.90;71.80;;;;;;4933247;29;20074;-67
2023/05/31 06:42:48;;;;;;;12.87;6.53;;;18.90;72.70;;;;;;4933091;29;20123;-67
2023/05/31 06:45:13;;;;;;;15.83;7.13;;;18.90;72.80;;;;;;4927368;29;20386;-67
2023/05/31 06:47:40;;;;;;;12.60;6.83;;;18.90;72.50;;;;;;4933208;29;20524;-67
2023/05/31 06:50:07;;;;;;;13.27;6.23;;;18.80;72.90;;;;;;4933097;29;20102;-67
2023/05/31 06:52:33;;;;;;;16.63;7.13;;;18.70;73.50;;;;;;4933149;29;20326;-67
2023/05/31 06:54:58;;;;;;;11.70;7.17;;;18.60;74.20;;;;;;4938650;29;20845;-67
2023/05/31 06:57:24;;;;;;;14.27;7.40;;;18.60;73.70;;;;;;4923772;29;20044;-67
2023/05/31 06:59:50;;;;;;;15.83;7.00;;;18.40;74.90;;;;;;4927247;29;20044;-67
2023/05/31 07:02:16;;;;;;;11.70;6.07;;;18.30;75.70;;;;;;4915813;29;20066;-68
2023/05/31 07:04:41;;;;;;;12.33;6.10;;;18.10;76.70;;;;;;4925294;29;20043;-67
2023/05/31 07:07:09;;;;;;;13.70;6.27;;;18.00;76.80;;;;;;4931724;29;20043;-67
2023/05/31 07:09:35;;;;;;;15.30;6.83;;;17.80;77.80;;;;;;4931915;29;20044;-67
2023/05/31 07:12:01;;;;;;;11.93;5.93;;;17.60;78.40;;;;;;4934895;29;20333;-67
2023/05/31 07:14:30;;;;;;;10.90;5.83;;;17.40;79.60;;;;;;4932056;29;20048;-67
2023/05/31 07:16:56;;;;;;;11.63;6.10;;;17.30;80.40;;;;;;4933870;29;20680;-67
2023/05/31 07:19:21;;;;;;;12.20;6.60;;;17.20;80.90;;;;;;4915815;29;20279;-67
2023/05/31 07:21:47;;;;;;;10.37;5.77;;;17.10;80.60;;;;;;4918314;29;20036;-67
2023/05/31 07:24:13;;;;;;;13.50;6.20;;;17.00;81.30;;;;;;4933353;29;20573;-67
2023/05/31 07:26:38;;;;;;;10.37;5.97;;;17.00;81.60;;;;;;4934228;29;20047;-68
2023/05/31 07:29:04;;;;;;;10.43;5.27;;;17.10;81.20;;;;;;4915722;29;20410;-68
2023/05/31 07:31:30;;;;;;;11.23;5.83;;;17.10;81.70;;;;;;4935858;29;20047;-68
2023/05/31 07:33:56;;;;;;;12.87;5.77;;;17.20;81.80;;;;;;4915891;29;20062;-68
2023/05/31 07:36:25;;;;;;;11.33;5.80;;;17.30;80.90;;;;;;4932069;29;20047;-68
2023/05/31 07:38:52;;;;;;;10.73;5.17;;;17.40;81.10;;;;;;4931436;29;20075;-68
2023/05/31 07:41:18;;;;;;;23.67;5.43;;;17.50;80.10;;;;;;4929439;29;20299;-68
2023/05/31 07:43:47;;;;;;;13.33;5.20;;;17.50;80.20;;;;;;4916006;29;20694;-68
2023/05/31 07:46:13;;;;;;;12.50;5.73;;;17.60;79.30;;;;;;4931374;29;20299;-68
2023/05/31 07:48:38;;;;;;;11.57;5.30;;;17.60;79.30;;;;;;4931784;29;20890;-68
2023/05/31 07:51:04;;;;;;;10.10;4.87;;;17.70;79.80;;;;;;4935833;29;20397;-68
2023/05/31 07:53:30;;;;;;;11.57;4.93;;;17.80;80.20;;;;;;4930456;29;20713;-68
2023/05/31 07:55:56;;;;;;;13.63;5.13;;;17.90;79.50;;;;;;4924207;29;20094;-68
2023/05/31 07:58:22;;;;;;;13.73;5.10;;;17.90;77.80;;;;;;4934304;29;20858;-69
2023/05/31 08:00:51;;;;;;;11.80;5.00;;;17.90;78.00;;;;;;4931664;29;20083;-69
2023/05/31 08:03:17;;;;;;;10.80;4.63;;;17.90;77.60;;;;;;4931977;29;20055;-69
2023/05/31 08:05:45;;;;;;;9.83;5.10;;;17.90;78.00;;;;;;4931879;29;20279;-67
2023/05/31 08:08:10;;;;;;;12.70;4.43;;;17.90;78.40;;;;;;4928882;29;20127;-67
2023/05/31 08:10:36;;;;;;;16.40;4.73;;;18.00;77.60;;;;;;4928344;29;20862;-68
2023/05/31 08:13:02;;;;;;;12.97;5.10;;;18.10;78.20;;;;;;4914656;29;20361;-69
2023/05/31 08:15:28;;;;;;;10.43;4.57;;;18.20;77.70;;;;;;4930682;28;20047;-74
2023/05/31 08:17:54;;;;;;;10.60;4.60;;;18.30;78.00;;;;;;4932431;29;20760;-68
2023/05/31 08:20:20;;;;;;;8.90;4.80;;;18.40;77.30;;;;;;4929063;29;20051;-68
2023/05/31 08:22:46;;;;;;;11.10;5.17;;;18.40;77.10;;;;;;4929377;29;20056;-68
2023/05/31 08:25:13;;;;;;;10.57;4.50;;;18.50;77.90;;;;;;4929210;29;20291;-69
2023/05/31 08:27:40;;;;;;;9.13;4.10;;;18.80;77.80;;;;;;4929741;29;20047;-68
2023/05/31 08:30:09;;;;;;;8.57;4.10;;;19.10;76.30;;;;;;4931618;29;20788;-69
2023/05/31 08:32:35;;;;;;;10.20;4.53;;;19.20;75.60;;;;;;4929692;29;20287;-69
2023/05/31 08:35:01;;;;;;;11.50;4.73;;;19.10;74.80;;;;;;4930457;29;20295;-69
2023/05/31 08:37:27;;;;;;;9.73;4.50;;;19.10;74.80;;;;;;4931023;29;20292;-67
2023/05/31 08:39:53;;;;;;;8.63;4.43;;;19.30;75.20;;;;;;4932667;29;20700;-69
2023/05/31 08:42:25;;;;;;;7.27;4.30;;;19.40;75.30;;;;;;4930708;29;20062;-68
2023/05/31 08:44:51;;;;;;;10.50;4.37;;;19.60;74.60;;;;;;4915934;29;20035;-69
2023/05/31 08:47:29;;;;;;;9.63;4.20;;;19.90;74.40;;;;;;4930701;29;20291;-68
2023/05/31 08:49:55;;;;;;;9.87;4.47;;;20.10;73.30;;;;;;4932559;29;20050;-68
2023/05/31 08:52:22;;;;;;;7.87;3.97;;;20.30;71.50;;;;;;4915770;29;20035;-67
2023/05/31 08:54:50;;;;;;;9.13;2.93;;;20.30;71.80;;;;;;4931659;29;20546;-69
2023/05/31 08:57:17;;;;;;;5.73;2.53;;;20.40;71.50;;;;;;4930586;29;20399;-68
2023/05/31 08:59:44;;;;;;;6.57;2.60;;;20.40;71.10;;;;;;4915648;29;20066;-69
2023/05/31 09:02:12;;;;;;;7.10;2.50;;;20.20;71.00;;;;;;4931099;29;20031;-69
2023/05/31 09:04:40;;;;;;;5.90;2.50;;;19.90;72.10;;;;;;4933000;29;20046;-69
2023/05/31 09:07:06;;;;;;;8.23;3.10;;;19.70;73.30;;;;;;4930565;29;20048;-68
2023/05/31 09:09:32;;;;;;;7.50;2.70;;;19.60;73.20;;;;;;4931214;29;20536;-68
2023/05/31 09:11:58;;;;;;;9.97;3.50;;;19.40;74.40;;;;;;4935457;29;20062;-68
2023/05/31 09:14:24;;;;;;;8.00;3.30;;;19.30;74.70;;;;;;4914705;29;20115;-68
2023/05/31 09:16:50;;;;;;;6.00;3.10;;;19.30;74.60;;;;;;4931278;29;20261;-68
2023/05/31 09:19:16;;;;;;;7.03;3.40;;;19.40;74.20;;;;;;4915592;29;20052;-68
2023/05/31 09:21:44;;;;;;;8.80;3.20;;;19.40;74.20;;;;;;4930605;29;20038;-69
2023/05/31 09:24:12;;;;;;;8.27;3.00;;;19.40;73.80;;;;;;4916168;29;20048;-68
2023/05/31 09:26:52;;;;;;;9.20;3.13;;;19.20;75.20;;;;;;4930028;29;20611;-69
2023/05/31 09:29:19;;;;;;;6.50;3.57;;;19.20;75.00;;;;;;4930987;29;20507;-68
2023/05/31 09:31:46;;;;;;;8.10;3.87;;;19.40;74.80;;;;;;4936457;29;20063;-70
2023/05/31 09:34:31;;;;;;;10.63;4.07;;;19.40;74.60;;;;;;4936897;29;20043;-68
2023/05/31 09:37:01;;;;;;;7.67;3.97;;;19.60;74.50;;;;;;4927768;29;20380;-69
2023/05/31 09:39:27;;;;;;;10.10;4.30;;;19.80;73.80;;;;;;4928588;29;20036;-68
2023/05/31 09:41:56;;;;;;;9.33;4.13;;;19.90;72.30;;;;;;4931015;29;20489;-68
2023/05/31 09:44:29;;;;;;;10.43;4.20;;;19.90;73.00;;;;;;4930228;29;20047;-68
2023/05/31 09:46:55;;;;;;;12.10;4.73;;;19.90;72.30;;;;;;4931627;29;20048;-68
2023/05/31 09:49:21;;;;;;;12.83;4.73;;;20.00;72.20;;;;;;4945328;28;20412;-68
2023/05/31 09:51:54;;;;;;;11.60;5.03;;;20.00;71.20;;;;;;4932764;29;20052;-71
2023/05/31 09:54:25;;;;;;;13.47;5.03;;;19.80;70.70;;;;;;4933160;29;20091;-71
2023/05/31 09:56:50;;;;;;;12.63;4.93;;;19.60;71.00;;;;;;4921634;29;20102;-68
2023/05/31 09:59:17;;;;;;;11.80;4.27;;;19.40;73.00;;;;;;4936802;29;20047;-69
2023/05/31 10:01:44;;;;;;;12.83;5.17;;;19.40;73.00;;;;;;4924039;29;20043;-68
2023/05/31 10:04:10;;;;;;;14.43;5.07;;;19.50;73.30;;;;;;4935161;29;20551;-68
2023/05/31 10:06:37;;;;;;;10.50;4.87;;;19.40;73.30;;;;;;4918988;29;20071;-69
2023/05/31 10:09:04;;;;;;;12.30;4.80;;;19.40;73.30;;;;;;4930716;29;20466;-69
2023/05/31 10:11:36;;;;;;;12.20;4.80;;;19.30;72.70;;;;;;4933420;29;20385;-69
2023/05/31 10:14:06;;;;;;;10.87;4.80;;;19.10;73.40;;;;;;4929656;29;20070;-66
2023/05/31 10:16:41;;;;;;;15.40;5.57;;;19.10;74.40;;;;;;4926421;29;20039;-66
2023/05/31 10:19:10;;;;;;;;;;;19.10;73.40;;;;;;4931786;29;20047;-66
2023/05/31 10:21:41;;;;;;;13.17;5.13;;;19.10;75.00;;;;;;4929694;29;20423;-67
2023/05/31 10:24:08;;;;;;;12.87;5.37;;;19.10;75.00;;;;;;4929724;29;20039;-66
2023/05/31 10:26:54;;;;;;;11.87;5.20;;;19.20;74.30;;;;;;4930376;29;20051;-66
2023/05/31 10:29:25;;;;;;;10.20;4.67;;;19.30;72.90;;;;;;4903479;29;20090;-66
2023/05/31 10:31:53;;;;;;;13.17;5.77;;;19.30;73.50;;;;;;4930075;29;20079;-66
2023/05/31 10:34:24;;;;;;;11.63;5.60;;;19.30;73.50;;;;;;4932700;29;20055;-67
2023/05/31 10:36:54;;;;;;;14.47;5.97;;;19.40;73.60;;;;;;4913464;29;20043;-67
2023/05/31 10:39:32;;;;;;;13.77;5.87;;;19.40;73.20;;;;;;4916595;29;20040;-67
2023/05/31 10:42:08;;;;;;;11.43;5.20;;;19.40;73.30;;;;;;4936348;29;20050;-66
2023/05/31 10:44:46;;;;;;;13.40;6.03;;;19.50;72.40;;;;;;4933893;29;20059;-66
2023/05/31 10:47:15;;;;;;;12.20;5.47;;;19.50;71.30;;;;;;4934913;29;20482;-67
2023/05/31 10:49:43;;;;;;;13.77;5.70;;;19.40;70.30;;;;;;4932174;29;20047;-66
2023/05/31 10:52:09;;;;;;;13.37;5.83;;;19.20;71.60;;;;;;4940678;29;20078;-67
2023/05/31 10:54:35;;;;;;;13.80;6.10;;;19.10;71.70;;;;;;4919390;29;20102;-66
2023/05/31 10:57:03;;;;;;;11.63;5.90;;;19.10;72.10;;;;;;4918893;29;20048;-66
2023/05/31 10:59:40;;;;;;;11.30;5.93;;;19.10;72.90;;;;;;4918624;29;20039;-66
2023/05/31 11:02:06;;;;;;;10.33;5.63;;;19.10;73.00;;;;;;4934912;29;20079;-66
2023/05/31 11:04:32;;;;;;;12.07;5.93;;;19.10;72.70;;;;;;4934101;29;20044;-66
2023/05/31 11:07:17;;;;;;;9.50;5.27;;;19.20;72.10;;;;;;4932546;29;20401;-66
2023/05/31 11:09:56;;;;;;;;;;;19.20;72.20;;;;;;4919998;29;20047;-66
2023/05/31 11:12:35;;;;;;;9.90;5.03;;;19.40;72.50;;;;;;4927950;29;19929;-66
2023/05/31 11:15:03;;;;;;;8.83;5.10;;;19.40;72.00;;;;;;4938578;29;20295;-67
2023/05/31 11:17:39;;;;;;;10.20;5.17;;;19.60;71.70;;;;;;4935146;29;20083;-67
2023/05/31 11:20:05;;;;;;;9.10;5.22;;;19.80;71.00;;;;;;4934100;29;20066;-67
2023/05/31 11:22:31;;;;;;;9.23;5.03;;;19.90;70.50;;;;;;4934904;29;20514;-67
2023/05/31 11:25:00;;;;;;;6.73;4.70;;;19.90;70.20;;;;;;4935904;29;20116;-67
2023/05/31 11:27:39;;;;;;;9.70;5.30;;;19.90;69.40;;;;;;4916692;29;20043;-66
2023/05/31 11:30:09;;;;;;;8.23;4.60;;;19.90;70.00;;;;;;4917027;29;20048;-67
2023/05/31 11:32:35;;;;;;;10.50;5.43;;;19.90;70.00;;;;;;4934714;29;20488;-67
2023/05/31 11:35:06;;;;;;;7.77;5.13;;;19.90;70.30;;;;;;4933748;29;20042;-66
2023/05/31 11:37:37;;;;;;;10.73;5.57;;;20.00;70.80;;;;;;4932722;29;20050;-67
2023/05/31 11:40:11;;;;;;;7.83;5.17;;;20.00;69.00;;;;;;4917162;29;20048;-67
2023/05/31 11:42:46;;;;;;;8.88;5.60;;;19.90;69.40;;;;;;4933782;29;20106;-67
2023/05/31 11:45:14;;;;;;;10.97;5.40;;;19.90;70.20;;;;;;4933417;29;20050;-67
2023/05/31 11:48:03;;;;;;;10.97;5.90;;;19.90;70.40;;;;;;4940148;29;20139;-67
2023/05/31 11:50:30;;;;;;;9.80;5.83;;;19.80;70.10;;;;;;4933108;29;20040;-66
2023/05/31 11:52:58;;;;;;;10.63;5.57;;;19.80;70.60;;;;;;4932413;29;20300;-67
2023/05/31 11:55:33;;;;;;;9.30;5.33;;;19.70;70.50;;;;;;4931713;29;20209;-67
2023/05/31 11:57:59;;;;;;;9.88;4.97;;;19.70;70.70;;;;;;4932187;29;20471;-67
2023/05/31 12:00:25;;;;;;;8.73;5.83;;;19.70;70.50;;;;;;4931951;29;20337;-67
2023/05/31 12:02:53;;;;;;;11.80;5.70;;;19.80;70.20;;;;;;4939211;29;20085;-69
2023/05/31 12:05:19;;;;;;;11.13;4.93;;;19.90;69.90;;;;;;4921912;29;20059;-69
2023/05/31 12:07:53;;;;;;;9.20;5.07;;;20.00;69.80;;;;;;4933506;29;20144;-68
2023/05/31 12:10:18;;;;;;;9.20;5.20;;;20.20;70.20;;;;;;4932439;29;20142;-68
2023/05/31 12:12:46;;;;;;;7.73;4.23;;;20.20;69.80;;;;;;4933647;29;20542;-69
2023/05/31 12:15:17;;;;;;;10.67;4.47;;;20.30;68.50;;;;;;4935444;29;20452;-68
2023/05/31 12:17:43;;;;;;;9.27;4.17;;;20.30;68.60;;;;;;4916553;29;20496;-70
2023/05/31 12:20:12;;;;;;;8.80;4.80;;;20.30;68.10;;;;;;4919455;29;20047;-68
2023/05/31 12:22:38;;;;;;;9.60;4.60;;;20.30;68.10;;;;;;4933605;29;20043;-70
2023/05/31 12:25:09;;;;;;;9.27;4.87;;;20.30;67.20;;;;;;4934496;29;20120;-69
2023/05/31 12:27:38;;;;;;;11.27;5.10;;;20.20;68.40;;;;;;4931628;29;20107;-69
2023/05/31 12:30:04;;;;;;;8.60;5.10;;;20.20;68.50;;;;;;4933074;29;20047;-68
2023/05/31 12:32:30;;;;;;;7.90;5.60;;;20.30;69.10;;;;;;4933681;29;20043;-69
2023/05/31 12:35:07;;;;;;;11.00;5.67;;;20.30;67.90;;;;;;4932090;29;20052;-69
2023/05/31 12:37:38;;;;;;;13.80;7.03;;;20.30;67.90;;;;;;4933871;29;20078;-69
2023/05/31 12:40:19;;;;;;;13.37;7.33;;;20.20;67.20;;;;;;4931970;29;20043;-69
2023/05/31 12:42:47;;;;;;;11.67;7.37;;;20.10;68.20;;;;;;4933689;29;20054;-69
2023/05/31 12:45:18;;;;;;;12.33;7.10;;;20.00;68.70;;;;;;4932266;29;20048;-69